Time;durP1;ratioP1;P1;durP2;ratioP2;P2;SDS_P1;SDS_P2;PMS_P1;PMS_P2;Temp;Humidity;BMP_temperature;BMP_pressure;BME280_temperature;BME280_humidity;BME280_pressure;Samples;Min_cycle;Max_cycle;Signal;HPM_P1;HPM_P2
2023/03/13 00:00:10;;;;;;;;;;;;;;;;;;1874313;28;7116;-64
2023/03/13 00:01:10;;;;;;;;;;;;;;;;;;1874435;28;7336;-63
2023/03/13 00:02:08;;;;;;;;;;;;;;;;;;1871773;28;8039;-63
2023/03/13 00:03:06;;;;;;;;;;;;;;;;;;1874346;28;7010;-64
2023/03/13 00:04:04;;;;;;;;;;;;;;;;;;1874260;28;8111;-65
2023/03/13 00:05:01;;;;;;;;;;;;;;;;;;1874037;28;7046;-63
2023/03/13 00:05:59;;;;;;;;;;;;;;;;;;1874161;28;7013;-65
2023/03/13 00:06:57;;;;;;;;;;;;;;;;;;1874281;29;8004;-64
2023/03/13 00:07:54;;;;;;;;;;;;;;;;;;1874056;29;8032;-65
2023/03/13 00:08:53;;;;;;;;;;;;;;;;;;1874231;29;7375;-62
2023/03/13 00:09:50;;;;;;;;;;;;;;;;;;1874613;29;7056;-62
2023/03/13 00:10:48;;;;;;;;;;;;;;;;;;1874162;29;7173;-65
2023/03/13 00:11:46;;;;;;;;;;;;;;;;;;1873676;29;7992;-64
2023/03/13 00:12:43;;;;;;;;;;;;;;;;;;1873834;29;8017;-62
2023/03/13 00:13:42;;;;;;;;;;;;;;;;;;1874249;29;7416;-63
2023/03/13 00:14:39;;;;;;;;;;;;;;;;;;1874143;29;7058;-63
2023/03/13 00:15:36;;;;;;;;;;;;;;;;;;1874176;29;8045;-63
2023/03/13 00:16:36;;;;;;;;;;;;;;;;;;1873586;29;7038;-65
2023/03/13 00:17:33;;;;;;;;;;;;;;;;;;1874607;29;7100;-64
2023/03/13 00:18:31;;;;;;;;;;;;;;;;;;1873656;29;8036;-65
2023/03/13 00:19:28;;;;;;;;;;;;;;;;;;1874279;29;8056;-63
2023/03/13 00:20:25;;;;;;;;;;;;;;;;;;1874191;29;8022;-62
2023/03/13 00:21:25;;;;;;;;;;;;;;;;;;1874235;29;8022;-65
2023/03/13 00:22:22;;;;;;;;;;;;;;;;;;1874247;29;7044;-63
2023/03/13 00:23:19;;;;;;;;;;;;;;;;;;1872634;29;7572;-63
2023/03/13 00:24:17;;;;;;;;;;;;;;;;;;1872735;29;7093;-65
2023/03/13 00:25:14;;;;;;;;;;;;;;;;;;1870905;29;7097;-62
2023/03/13 00:26:13;;;;;;;;;;;;;;;;;;1869022;29;7021;-64
2023/03/13 00:27:11;;;;;;;;;;;;;;;;;;1874042;29;7006;-64
2023/03/13 00:28:08;;;;;;;;;;;;;;;;;;1872455;29;7097;-62
2023/03/13 00:29:05;;;;;;;;;;;;;;;;;;1872432;28;7042;-63
2023/03/13 00:30:03;;;;;;;;;;;;;;;;;;1873176;28;8008;-63
2023/03/13 00:31:08;;;;;;;;;;;;;;;;;;1874951;28;7005;-63
2023/03/13 00:32:06;;;;;;;;;;;;;;;;;;1875881;28;7022;-65
2023/03/13 00:33:03;;;;;;;;;;;;;;;;;;1869113;28;7201;-64
2023/03/13 00:34:02;;;;;;;;;;;;;;;;;;1870090;28;7129;-64
2023/03/13 00:34:59;;;;;;;;;;;;;;;;;;1870109;28;8044;-63
2023/03/13 00:36:01;;;;;;;;;;;;;;;;;;1868487;29;7129;-64
2023/03/13 00:36:58;;;;;;;;;;;;;;;;;;1870129;28;7014;-63
2023/03/13 00:37:55;;;;;;;;;;;;;;;;;;1866993;28;7022;-63
2023/03/13 00:38:54;;;;;;;;;;;;;;;;;;1872074;28;7009;-64
2023/03/13 00:39:51;;;;;;;;;;;;;;;;;;1867472;29;7097;-64
2023/03/13 00:40:48;;;;;;;;;;;;;;;;;;1868020;29;7101;-63
2023/03/13 00:41:46;;;;;;;;;;;;;;;;;;1871625;28;8037;-64
2023/03/13 00:42:44;;;;;;;;;;;;;;;;;;1875754;28;7013;-65
2023/03/13 00:43:42;;;;;;;;;;;;;;;;;;1875611;28;7097;-65
2023/03/13 00:44:40;;;;;;;;;;;;;;;;;;1872606;28;7145;-64
2023/03/13 00:45:37;;;;;;;;;;;;;;;;;;1873110;28;7134;-64
2023/03/13 00:46:35;;;;;;;;;;;;;;;;;;1869262;28;7369;-65
2023/03/13 00:47:33;;;;;;;;;;;;;;;;;;1874688;28;7093;-63
2023/03/13 00:48:31;;;;;;;;;;;;;;;;;;1868439;29;7093;-64
2023/03/13 00:49:29;;;;;;;;;;;;;;;;;;1869014;28;7010;-64
2023/03/13 00:50:26;;;;;;;;;;;;;;;;;;1873398;28;7010;-63
2023/03/13 00:51:25;;;;;;;;;;;;;;;;;;1875128;28;7230;-64
2023/03/13 00:52:23;;;;;;;;;;;;;;;;;;1874504;28;7046;-64
2023/03/13 00:53:21;;;;;;;;;;;;;;;;;;1875476;28;7047;-63
2023/03/13 00:54:19;;;;;;;;;;;;;;;;;;1868480;29;7061;-65
2023/03/13 00:55:16;;;;;;;;;;;;;;;;;;1873162;28;7029;-65
2023/03/13 00:56:17;;;;;;;;;;;;;;;;;;1868352;29;7014;-64
2023/03/13 00:57:15;;;;;;;;;;;;;;;;;;1868206;29;7046;-64
2023/03/13 00:58:12;;;;;;;;;;;;;;;;;;1870393;28;7010;-65
2023/03/13 00:59:09;;;;;;;;;;;;;;;;;;1872431;28;7010;-62
2023/03/13 01:00:07;;;;;;;;;;;;;;;;;;1871631;28;7038;-64
2023/03/13 01:01:05;;;;;;;;;;;;;;;;;;1871345;28;7336;-64
2023/03/13 01:02:03;;;;;;;;;;;;;;;;;;1868960;28;7113;-64
2023/03/13 01:03:00;;;;;;;;;;;;;;;;;;1868352;29;7577;-65
2023/03/13 01:04:00;;;;;;;;;;;;;;;;;;1870222;28;7039;-63
2023/03/13 01:04:57;;;;;;;;;;;;;;;;;;1868460;28;7126;-64
2023/03/13 01:05:57;;;;;;;;;;;;;;;;;;1868123;29;7160;-64
2023/03/13 01:06:54;;;;;;;;;;;;;;;;;;1869482;28;7002;-62
2023/03/13 01:07:52;;;;;;;;;;;;;;;;;;1873442;28;7093;-64
2023/03/13 01:08:49;;;;;;;;;;;;;;;;;;1875230;28;7108;-64
2023/03/13 01:09:47;;;;;;;;;;;;;;;;;;1872337;28;7010;-63
2023/03/13 01:10:44;;;;;;;;;;;;;;;;;;1868866;28;7100;-65
2023/03/13 01:11:42;;;;;;;;;;;;;;;;;;1868320;28;9049;-62
2023/03/13 01:12:40;;;;;;;;;;;;;;;;;;1868999;28;7999;-65
2023/03/13 01:13:39;;;;;;;;;;;;;;;;;;1871844;28;7097;-62
2023/03/13 01:14:36;;;;;;;;;;;;;;;;;;1868347;29;7050;-63
2023/03/13 01:15:34;;;;;;;;;;;;;;;;;;1867241;29;7029;-65
2023/03/13 01:16:33;;;;;;;;;;;;;;;;;;1867558;29;7096;-63
2023/03/13 01:17:30;;;;;;;;;;;;;;;;;;1867821;28;8032;-63
2023/03/13 01:18:28;;;;;;;;;;;;;;;;;;1867984;29;7125;-63
2023/03/13 01:19:25;;;;;;;;;;;;;;;;;;1868495;28;7042;-63
2023/03/13 01:20:22;;;;;;;;;;;;;;;;;;1873003;28;7317;-66
2023/03/13 01:21:21;;;;;;;;;;;;;;;;;;1868549;29;7006;-64
2023/03/13 01:22:19;;;;;;;;;;;;;;;;;;1873988;28;8014;-64
2023/03/13 01:23:16;;;;;;;;;;;;;;;;;;1873366;28;7006;-63
2023/03/13 01:24:14;;;;;;;;;;;;;;;;;;1875606;28;8002;-65
2023/03/13 01:25:11;;;;;;;;;;;;;;;;;;1875393;28;7138;-64
2023/03/13 01:26:08;;;;;;;;;;;;;;;;;;1875181;28;8050;-63
2023/03/13 01:27:06;;;;;;;;;;;;;;;;;;1874834;28;7071;-64
2023/03/13 01:28:03;;;;;;;;;;;;;;;;;;1876234;28;7006;-63
2023/03/13 01:29:01;;;;;;;;;;;;;;;;;;1875236;28;7002;-64
2023/03/13 01:29:58;;;;;;;;;;;;;;;;;;1875006;28;7054;-64
2023/03/13 01:30:55;;;;;;;;;;;;;;;;;;1874864;28;9011;-65
2023/03/13 01:31:53;;;;;;;;;;;;;;;;;;1874981;28;7050;-65
2023/03/13 01:32:50;;;;;;;;;;;;;;;;;;1875062;28;7006;-64
2023/03/13 01:33:49;;;;;;;;;;;;;;;;;;1875049;28;7010;-65
2023/03/13 01:34:47;;;;;;;;;;;;;;;;;;1875472;28;7006;-65
2023/03/13 01:35:44;;;;;;;;;;;;;;;;;;1875274;28;7006;-63
2023/03/13 01:36:42;;;;;;;;;;;;;;;;;;1875408;28;7100;-63
2023/03/13 01:37:40;;;;;;;;;;;;;;;;;;1874877;28;7368;-63
2023/03/13 01:38:38;;;;;;;;;;;;;;;;;;1874716;28;8073;-64
2023/03/13 01:39:35;;;;;;;;;;;;;;;;;;1875135;28;7173;-63
2023/03/13 01:40:48;;;;;;;;;;;;;;;;;;1874224;28;8185;-64
2023/03/13 01:41:45;;;;;;;;;;;;;;;;;;1875074;28;7149;-64
2023/03/13 01:42:56;;;;;;;;;;;;;;;;;;1875035;28;7096;-64
2023/03/13 01:43:56;;;;;;;;;;;;;;;;;;1875289;28;8332;-64
2023/03/13 01:44:55;;;;;;;;;;;;;;;;;;1875283;28;7025;-63
2023/03/13 01:45:58;;;;;;;;;;;;;;;;;;1875823;28;7010;-64
2023/03/13 01:46:56;;;;;;;;;;;;;;;;;;1875506;28;7010;-66
2023/03/13 01:47:53;;;;;;;;;;;;;;;;;;1875134;28;7086;-64
2023/03/13 01:48:54;;;;;;;;;;;;;;;;;;1874504;28;7010;-64
2023/03/13 01:49:52;;;;;;;;;;;;;;;;;;1875058;28;7002;-63
2023/03/13 01:50:49;;;;;;;;;;;;;;;;;;1875156;28;7161;-65
2023/03/13 01:51:46;;;;;;;;;;;;;;;;;;1874952;28;7010;-64
2023/03/13 01:52:44;;;;;;;;;;;;;;;;;;1875089;28;7010;-63
2023/03/13 01:53:45;;;;;;;;;;;;;;;;;;1875614;28;7105;-65
2023/03/13 01:54:51;;;;;;;;;;;;;;;;;;1875330;28;7034;-65
2023/03/13 01:55:49;;;;;;;;;;;;;;;;;;1874942;28;7006;-65
2023/03/13 01:56:51;;;;;;;;;;;;;;;;;;1874869;28;7102;-65
2023/03/13 01:57:51;;;;;;;;;;;;;;;;;;1874732;28;7046;-65
2023/03/13 01:58:51;;;;;;;;;;;;;;;;;;1874686;28;9001;-66
2023/03/13 01:59:52;;;;;;;;;;;;;;;;;;1875236;28;7010;-65
2023/03/13 02:00:50;;;;;;;;;;;;;;;;;;1875185;28;7006;-64
2023/03/13 02:01:50;;;;;;;;;;;;;;;;;;1875022;28;7006;-64
2023/03/13 02:02:50;;;;;;;;;;;;;;;;;;1867022;29;7014;-63
2023/03/13 02:03:49;;;;;;;;;;;;;;;;;;1867886;29;7372;-63
2023/03/13 02:04:51;;;;;;;;;;;;;;;;;;1873529;28;7149;-64
2023/03/13 02:05:49;;;;;;;;;;;;;;;;;;1874707;28;7053;-65
2023/03/13 02:06:50;;;;;;;;;;;;;;;;;;1875052;28;7010;-64
2023/03/13 02:07:50;;;;;;;;;;;;;;;;;;1874697;28;7078;-65
2023/03/13 02:08:52;;;;;;;;;;;;;;;;;;1874682;28;7042;-64
2023/03/13 02:09:52;;;;;;;;;;;;;;;;;;1874060;28;7010;-65
2023/03/13 02:11:03;;;;;;;;;;;;;;;;;;1874846;28;7049;-64
2023/03/13 02:12:09;;;;;;;;;;;;;;;;;;1875082;28;7065;-64
2023/03/13 02:13:06;;;;;;;;;;;;;;;;;;1874811;28;7121;-66
2023/03/13 02:14:03;;;;;;;;;;;;;;;;;;1875101;28;7093;-63
2023/03/13 02:15:04;;;;;;;;;;;;;;;;;;1875662;28;7089;-64
2023/03/13 02:16:01;;;;;;;;;;;;;;;;;;1874798;28;7285;-63
2023/03/13 02:17:00;;;;;;;;;;;;;;;;;;1874825;28;7089;-63
2023/03/13 02:17:59;;;;;;;;;;;;;;;;;;1875002;28;7325;-65
2023/03/13 02:18:56;;;;;;;;;;;;;;;;;;1874894;28;7093;-63
2023/03/13 02:19:53;;;;;;;;;;;;;;;;;;1874498;28;7006;-64
2023/03/13 02:20:57;;;;;;;;;;;;;;;;;;1875183;28;7006;-64
2023/03/13 02:22:04;;;;;;;;;;;;;;;;;;1875071;28;7034;-64
2023/03/13 02:23:04;;;;;;;;;;;;;;;;;;1874983;28;8128;-64
2023/03/13 02:24:01;;;;;;;;;;;;;;;;;;1873708;28;7010;-62
2023/03/13 02:25:08;;;;;;;;;;;;;;;;;;1875148;28;7038;-65
2023/03/13 02:26:05;;;;;;;;;;;;;;;;;;1874107;28;7010;-63
2023/03/13 02:27:03;;;;;;;;;;;;;;;;;;1867045;29;8013;-63
2023/03/13 02:28:22;;;;;;;;;;;;;;;;;;1866213;29;8193;-64
2023/03/13 02:29:20;;;;;;;;;;;;;;;;;;1875093;28;7014;-64
2023/03/13 02:30:17;;;;;;;;;;;;;;;;;;1874745;28;7110;-63
2023/03/13 02:31:15;;;;;;;;;;;;;;;;;;1874691;28;7185;-65
2023/03/13 02:32:13;;;;;;;;;;;;;;;;;;1875111;28;7113;-63
2023/03/13 02:33:13;;;;;;;;;;;;;;;;;;1875515;28;7097;-63
2023/03/13 02:34:14;;;;;;;;;;;;;;;;;;1874946;28;7113;-65
2023/03/13 02:35:14;;;;;;;;;;;;;;;;;;1873704;28;7153;-65
2023/03/13 02:36:13;;;;;;;;;;;;;;;;;;1875963;28;7006;-63
2023/03/13 02:37:13;;;;;;;;;;;;;;;;;;1875341;28;7437;-65
2023/03/13 02:38:13;;;;;;;;;;;;;;;;;;1875139;28;7034;-64
2023/03/13 02:39:14;;;;;;;;;;;;;;;;;;1874586;28;7006;-63
2023/03/13 02:40:15;;;;;;;;;;;;;;;;;;1874563;28;7002;-65
2023/03/13 02:41:12;;;;;;;;;;;;;;;;;;1874875;28;7009;-64
2023/03/13 02:42:10;;;;;;;;;;;;;;;;;;1874712;28;7097;-65
2023/03/13 02:43:12;;;;;;;;;;;;;;;;;;1874740;28;7038;-63
2023/03/13 02:44:09;;;;;;;;;;;;;;;;;;1874176;28;7014;-63
2023/03/13 02:45:07;;;;;;;;;;;;;;;;;;1875832;28;7006;-65
2023/03/13 02:46:16;;;;;;;;;;;;;;;;;;1875182;28;7021;-65
2023/03/13 02:47:18;;;;;;;;;;;;;;;;;;1874173;28;7128;-64
2023/03/13 02:48:16;;;;;;;;;;;;;;;;;;1875119;28;7522;-65
2023/03/13 02:49:31;;;;;;;;;;;;;;;;;;1875138;28;7089;-63
2023/03/13 02:50:29;;;;;;;;;;;;;;;;;;1873901;28;8990;-65
2023/03/13 02:51:38;;;;;;;;;;;;;;;;;;1871620;28;7381;-63
2023/03/13 02:52:42;;;;;;;;;;;;;;;;;;1873353;28;7395;-65
2023/03/13 02:53:41;;;;;;;;;;;;;;;;;;1874751;28;7958;-63
2023/03/13 02:54:40;;;;;;;;;;;;;;;;;;1874813;28;8032;-65
2023/03/13 02:55:41;;;;;;;;;;;;;;;;;;1874929;28;7999;-64
2023/03/13 02:56:40;;;;;;;;;;;;;;;;;;1874292;28;8052;-64
2023/03/13 02:57:37;;;;;;;;;;;;;;;;;;1875051;28;7042;-65
2023/03/13 02:58:38;;;;;;;;;;;;;;;;;;1874863;28;7006;-62
2023/03/13 02:59:46;;;;;;;;;;;;;;;;;;1874504;28;7124;-64
2023/03/13 03:00:44;;;;;;;;;;;;;;;;;;1874919;28;7187;-65
2023/03/13 03:01:41;;;;;;;;;;;;;;;;;;1874652;28;7034;-63
2023/03/13 03:02:38;;;;;;;;;;;;;;;;;;1866644;29;7049;-64
2023/03/13 03:03:36;;;;;;;;;;;;;;;;;;1866671;29;7127;-63
2023/03/13 03:04:33;;;;;;;;;;;;;;;;;;1873935;28;8565;-63
2023/03/13 03:05:31;;;;;;;;;;;;;;;;;;1874390;28;7113;-63
2023/03/13 03:06:28;;;;;;;;;;;;;;;;;;1874568;28;8037;-64
2023/03/13 03:07:25;;;;;;;;;;;;;;;;;;1874894;28;7088;-64
2023/03/13 03:08:23;;;;;;;;;;;;;;;;;;1874525;28;7009;-63
2023/03/13 03:09:20;;;;;;;;;;;;;;;;;;1874120;28;7097;-64
2023/03/13 03:10:18;;;;;;;;;;;;;;;;;;1874600;28;7030;-65
2023/03/13 03:11:15;;;;;;;;;;;;;;;;;;1874695;28;7089;-62
2023/03/13 03:12:13;;;;;;;;;;;;;;;;;;1873597;28;7002;-65
2023/03/13 03:13:10;;;;;;;;;;;;;;;;;;1874916;28;8006;-64
2023/03/13 03:14:09;;;;;;;;;;;;;;;;;;1874767;28;8337;-66
2023/03/13 03:15:06;;;;;;;;;;;;;;;;;;1875244;28;7161;-64
2023/03/13 03:16:05;;;;;;;;;;;;;;;;;;1873350;28;7035;-63
2023/03/13 03:17:02;;;;;;;;;;;;;;;;;;1873872;28;7006;-65
2023/03/13 03:17:59;;;;;;;;;;;;;;;;;;1873297;28;7089;-63
2023/03/13 03:18:57;;;;;;;;;;;;;;;;;;1873198;28;7193;-63
2023/03/13 03:19:54;;;;;;;;;;;;;;;;;;1874343;28;7127;-65
2023/03/13 03:20:52;;;;;;;;;;;;;;;;;;1874803;28;7093;-65
2023/03/13 03:21:49;;;;;;;;;;;;;;;;;;1874463;28;7013;-64
2023/03/13 03:22:46;;;;;;;;;;;;;;;;;;1873064;28;7014;-65
2023/03/13 03:23:44;;;;;;;;;;;;;;;;;;1870187;28;7017;-64
2023/03/13 03:24:41;;;;;;;;;;;;;;;;;;1873730;28;7009;-64
2023/03/13 03:25:38;;;;;;;;;;;;;;;;;;1869632;28;8021;-65
2023/03/13 03:26:36;;;;;;;;;;;;;;;;;;1873790;28;7009;-66
2023/03/13 03:27:33;;;;;;;;;;;;;;;;;;1870372;28;7013;-65
2023/03/13 03:28:31;;;;;;;;;;;;;;;;;;1869375;28;8103;-64
2023/03/13 03:29:28;;;;;;;;;;;;;;;;;;1867334;29;7109;-66
2023/03/13 03:30:26;;;;;;;;;;;;;;;;;;1866865;29;7010;-66
2023/03/13 03:31:23;;;;;;;;;;;;;;;;;;1873369;28;8139;-63
2023/03/13 03:32:20;;;;;;;;;;;;;;;;;;1868246;28;7014;-63
2023/03/13 03:33:18;;;;;;;;;;;;;;;;;;1867500;29;8060;-64
2023/03/13 03:34:15;;;;;;;;;;;;;;;;;;1869041;28;7097;-65
2023/03/13 03:35:13;;;;;;;;;;;;;;;;;;1870486;28;8008;-65
2023/03/13 03:36:12;;;;;;;;;;;;;;;;;;1867578;29;7131;-64
2023/03/13 03:37:10;;;;;;;;;;;;;;;;;;1869405;28;7159;-64
2023/03/13 03:38:07;;;;;;;;;;;;;;;;;;1872149;28;7010;-65
2023/03/13 03:39:04;;;;;;;;;;;;;;;;;;1872635;28;7105;-66
2023/03/13 03:40:04;;;;;;;;;;;;;;;;;;1868868;28;7093;-64
2023/03/13 03:41:01;;;;;;;;;;;;;;;;;;1872418;28;7981;-64
2023/03/13 03:41:59;;;;;;;;;;;;;;;;;;1868700;28;8096;-63
2023/03/13 03:42:56;;;;;;;;;;;;;;;;;;1866744;28;7089;-65
2023/03/13 03:43:53;;;;;;;;;;;;;;;;;;1874546;28;8131;-65
2023/03/13 03:44:51;;;;;;;;;;;;;;;;;;1871376;28;8029;-64
2023/03/13 03:45:48;;;;;;;;;;;;;;;;;;1869890;28;7105;-63
2023/03/13 03:46:45;;;;;;;;;;;;;;;;;;1871368;28;7113;-66
2023/03/13 03:47:43;;;;;;;;;;;;;;;;;;1867502;29;8095;-64
2023/03/13 03:48:40;;;;;;;;;;;;;;;;;;1868879;28;7006;-64
2023/03/13 03:49:38;;;;;;;;;;;;;;;;;;1867257;29;7231;-65
2023/03/13 03:50:35;;;;;;;;;;;;;;;;;;1867499;28;7316;-64
2023/03/13 03:51:32;;;;;;;;;;;;;;;;;;1873320;28;7227;-65
2023/03/13 03:52:30;;;;;;;;;;;;;;;;;;1866848;29;7105;-63
2023/03/13 03:53:27;;;;;;;;;;;;;;;;;;1867236;29;7155;-64
2023/03/13 03:54:25;;;;;;;;;;;;;;;;;;1866666;29;7574;-66
2023/03/13 03:55:22;;;;;;;;;;;;;;;;;;1862428;29;7093;-63
2023/03/13 03:56:19;;;;;;;;;;;;;;;;;;1872536;28;7006;-63
2023/03/13 03:57:17;;;;;;;;;;;;;;;;;;1866903;29;7042;-62
2023/03/13 03:58:14;;;;;;;;;;;;;;;;;;1868845;28;7124;-62
2023/03/13 03:59:11;;;;;;;;;;;;;;;;;;1869689;28;8013;-64
2023/03/13 04:00:10;;;;;;;;;;;;;;;;;;1871967;28;7047;-62
2023/03/13 04:01:08;;;;;;;;;;;;;;;;;;1870757;28;7219;-63
2023/03/13 04:02:05;;;;;;;;;;;;;;;;;;1868556;28;7010;-63
2023/03/13 04:03:03;;;;;;;;;;;;;;;;;;1868421;29;8041;-62
2023/03/13 04:04:00;;;;;;;;;;;;;;;;;;1870990;28;7110;-62
2023/03/13 04:04:58;;;;;;;;;;;;;;;;;;1869025;28;7145;-64
2023/03/13 04:05:55;;;;;;;;;;;;;;;;;;1869083;28;7096;-66
2023/03/13 04:06:52;;;;;;;;;;;;;;;;;;1866231;29;7006;-63
2023/03/13 04:07:50;;;;;;;;;;;;;;;;;;1866795;29;7030;-66
2023/03/13 04:08:47;;;;;;;;;;;;;;;;;;1871807;29;7047;-64
2023/03/13 04:09:44;;;;;;;;;;;;;;;;;;1872171;29;8034;-65
2023/03/13 04:10:42;;;;;;;;;;;;;;;;;;1873787;29;7106;-64
2023/03/13 04:11:39;;;;;;;;;;;;;;;;;;1873832;29;7153;-64
2023/03/13 04:12:36;;;;;;;;;;;;;;;;;;1870324;29;7006;-65
2023/03/13 04:13:34;;;;;;;;;;;;;;;;;;1870374;29;8104;-65
2023/03/13 04:14:31;;;;;;;;;;;;;;;;;;1871497;29;7321;-64
2023/03/13 04:15:29;;;;;;;;;;;;;;;;;;1870793;29;8012;-64
2023/03/13 04:16:26;;;;;;;;;;;;;;;;;;1873983;29;7072;-65
2023/03/13 04:17:24;;;;;;;;;;;;;;;;;;1872799;29;8030;-64
2023/03/13 04:18:21;;;;;;;;;;;;;;;;;;1869353;29;7006;-64
2023/03/13 04:19:18;;;;;;;;;;;;;;;;;;1869564;29;7093;-65
2023/03/13 04:20:16;;;;;;;;;;;;;;;;;;1873978;29;7105;-63
2023/03/13 04:21:13;;;;;;;;;;;;;;;;;;1872937;29;7093;-65
2023/03/13 04:22:11;;;;;;;;;;;;;;;;;;1875281;29;7258;-65
2023/03/13 04:23:08;;;;;;;;;;;;;;;;;;1869130;29;8052;-63
2023/03/13 04:24:06;;;;;;;;;;;;;;;;;;1871983;29;7754;-64
2023/03/13 04:25:03;;;;;;;;;;;;;;;;;;1872099;29;7094;-66
2023/03/13 04:26:01;;;;;;;;;;;;;;;;;;1867630;29;7133;-64
2023/03/13 04:26:58;;;;;;;;;;;;;;;;;;1870701;29;7204;-64
2023/03/13 04:27:56;;;;;;;;;;;;;;;;;;1874851;29;7089;-65
2023/03/13 04:28:53;;;;;;;;;;;;;;;;;;1866133;29;7049;-64
2023/03/13 04:29:50;;;;;;;;;;;;;;;;;;1868144;29;7220;-64
2023/03/13 04:30:48;;;;;;;;;;;;;;;;;;1867131;29;8169;-62
2023/03/13 04:31:45;;;;;;;;;;;;;;;;;;1870200;29;7097;-63
2023/03/13 04:32:43;;;;;;;;;;;;;;;;;;1874203;29;7046;-64
2023/03/13 04:33:40;;;;;;;;;;;;;;;;;;1874781;29;7093;-65
2023/03/13 04:34:37;;;;;;;;;;;;;;;;;;1870321;29;7996;-63
2023/03/13 04:35:35;;;;;;;;;;;;;;;;;;1868132;29;7010;-64
2023/03/13 04:36:32;;;;;;;;;;;;;;;;;;1866064;29;7006;-63
2023/03/13 04:37:30;;;;;;;;;;;;;;;;;;1867331;29;7121;-65
2023/03/13 04:38:27;;;;;;;;;;;;;;;;;;1869931;29;8004;-65
2023/03/13 04:39:24;;;;;;;;;;;;;;;;;;1870088;29;7010;-65
2023/03/13 04:40:22;;;;;;;;;;;;;;;;;;1866728;29;7022;-65
2023/03/13 04:41:19;;;;;;;;;;;;;;;;;;1872234;29;7147;-65
2023/03/13 04:42:16;;;;;;;;;;;;;;;;;;1873785;29;8108;-65
2023/03/13 04:43:14;;;;;;;;;;;;;;;;;;1870097;29;7005;-64
2023/03/13 04:44:11;;;;;;;;;;;;;;;;;;1867210;29;8059;-64
2023/03/13 04:45:10;;;;;;;;;;;;;;;;;;1872497;29;7021;-63
2023/03/13 04:46:07;;;;;;;;;;;;;;;;;;1868149;29;7022;-65
2023/03/13 04:47:05;;;;;;;;;;;;;;;;;;1874267;29;7129;-64
2023/03/13 04:48:02;;;;;;;;;;;;;;;;;;1874652;29;7097;-63
2023/03/13 04:49:00;;;;;;;;;;;;;;;;;;1870399;29;7392;-63
2023/03/13 04:49:57;;;;;;;;;;;;;;;;;;1873657;29;7010;-63
2023/03/13 04:50:54;;;;;;;;;;;;;;;;;;1870439;29;7042;-62
2023/03/13 04:51:52;;;;;;;;;;;;;;;;;;1872900;29;7006;-64
2023/03/13 04:52:49;;;;;;;;;;;;;;;;;;1869059;29;8187;-64
2023/03/13 04:53:49;;;;;;;;;;;;;;;;;;1871246;29;8062;-63
2023/03/13 04:54:49;;;;;;;;;;;;;;;;;;1869426;29;7077;-65
2023/03/13 04:55:47;;;;;;;;;;;;;;;;;;1867733;29;7097;-63
2023/03/13 04:56:44;;;;;;;;;;;;;;;;;;1874086;29;7050;-66
2023/03/13 04:57:42;;;;;;;;;;;;;;;;;;1871964;29;8108;-64
2023/03/13 04:58:39;;;;;;;;;;;;;;;;;;1871989;29;8067;-64
2023/03/13 04:59:37;;;;;;;;;;;;;;;;;;1871642;29;7025;-64
2023/03/13 05:00:34;;;;;;;;;;;;;;;;;;1871666;29;7021;-64
2023/03/13 05:01:31;;;;;;;;;;;;;;;;;;1871650;29;7022;-64
2023/03/13 05:02:29;;;;;;;;;;;;;;;;;;1867752;29;7010;-64
2023/03/13 05:03:26;;;;;;;;;;;;;;;;;;1868055;29;7010;-63
2023/03/13 05:04:23;;;;;;;;;;;;;;;;;;1873164;29;7006;-64
2023/03/13 05:05:21;;;;;;;;;;;;;;;;;;1871636;29;7014;-66
2023/03/13 05:06:18;;;;;;;;;;;;;;;;;;1873025;29;7054;-64
2023/03/13 05:07:16;;;;;;;;;;;;;;;;;;1873253;29;8100;-65
2023/03/13 05:08:13;;;;;;;;;;;;;;;;;;1869098;29;7006;-63
2023/03/13 05:09:10;;;;;;;;;;;;;;;;;;1870240;29;7192;-66
2023/03/13 05:10:08;;;;;;;;;;;;;;;;;;1874215;29;7022;-63
2023/03/13 05:11:05;;;;;;;;;;;;;;;;;;1870124;29;7037;-63
2023/03/13 05:12:03;;;;;;;;;;;;;;;;;;1866472;29;7152;-64
2023/03/13 05:13:00;;;;;;;;;;;;;;;;;;1873909;29;7952;-65
2023/03/13 05:13:58;;;;;;;;;;;;;;;;;;1874771;29;7109;-64
2023/03/13 05:14:55;;;;;;;;;;;;;;;;;;1869989;29;7116;-63
2023/03/13 05:15:52;;;;;;;;;;;;;;;;;;1868323;29;7128;-65
2023/03/13 05:16:50;;;;;;;;;;;;;;;;;;1871444;28;8032;-64
2023/03/13 05:17:47;;;;;;;;;;;;;;;;;;1868353;28;7119;-66
2023/03/13 05:18:44;;;;;;;;;;;;;;;;;;1870367;28;8037;-65
2023/03/13 05:19:42;;;;;;;;;;;;;;;;;;1873934;28;8128;-65
2023/03/13 05:20:39;;;;;;;;;;;;;;;;;;1875878;28;8996;-64
2023/03/13 05:21:37;;;;;;;;;;;;;;;;;;1875551;28;7022;-65
2023/03/13 05:22:34;;;;;;;;;;;;;;;;;;1874585;28;7021;-64
2023/03/13 05:23:31;;;;;;;;;;;;;;;;;;1874436;28;7120;-65
2023/03/13 05:24:29;;;;;;;;;;;;;;;;;;1874446;28;7117;-66
2023/03/13 05:25:26;;;;;;;;;;;;;;;;;;1875029;28;7325;-65
2023/03/13 05:26:23;;;;;;;;;;;;;;;;;;1876260;28;7092;-65
2023/03/13 05:27:21;;;;;;;;;;;;;;;;;;1875144;28;7144;-64
2023/03/13 05:28:18;;;;;;;;;;;;;;;;;;1875712;28;7006;-63
2023/03/13 05:29:15;;;;;;;;;;;;;;;;;;1874973;28;7097;-65
2023/03/13 05:30:13;;;;;;;;;;;;;;;;;;1875808;28;7010;-64
2023/03/13 05:31:10;;;;;;;;;;;;;;;;;;1874869;28;7153;-66
2023/03/13 05:32:08;;;;;;;;;;;;;;;;;;1874585;28;7022;-65
2023/03/13 05:33:05;;;;;;;;;;;;;;;;;;1875422;28;7006;-64
2023/03/13 05:34:02;;;;;;;;;;;;;;;;;;1875452;28;7042;-65
2023/03/13 05:35:00;;;;;;;;;;;;;;;;;;1873705;28;7105;-64
2023/03/13 05:35:57;;;;;;;;;;;;;;;;;;1875656;28;7092;-66
2023/03/13 05:36:54;;;;;;;;;;;;;;;;;;1875862;28;9340;-63
2023/03/13 05:37:52;;;;;;;;;;;;;;;;;;1875151;28;8006;-63
2023/03/13 05:38:49;;;;;;;;;;;;;;;;;;1875378;28;7306;-63
2023/03/13 05:39:47;;;;;;;;;;;;;;;;;;1874005;28;7135;-65
2023/03/13 05:40:44;;;;;;;;;;;;;;;;;;1875226;28;7010;-63
2023/03/13 05:41:41;;;;;;;;;;;;;;;;;;1875536;28;7014;-64
2023/03/13 05:42:39;;;;;;;;;;;;;;;;;;1868252;29;7140;-67
2023/03/13 05:43:37;;;;;;;;;;;;;;;;;;1866919;29;7089;-65
2023/03/13 05:44:34;;;;;;;;;;;;;;;;;;1873942;28;8056;-63
2023/03/13 05:45:31;;;;;;;;;;;;;;;;;;1875239;28;8018;-64
2023/03/13 05:46:29;;;;;;;;;;;;;;;;;;1875192;28;7092;-65
2023/03/13 05:47:27;;;;;;;;;;;;;;;;;;1875482;28;7110;-64
2023/03/13 05:48:24;;;;;;;;;;;;;;;;;;1875329;28;7123;-65
2023/03/13 05:49:24;;;;;;;;;;;;;;;;;;1875891;28;7336;-67
2023/03/13 05:50:21;;;;;;;;;;;;;;;;;;1875294;28;7006;-64
2023/03/13 05:51:19;;;;;;;;;;;;;;;;;;1875225;28;7050;-64
2023/03/13 05:52:16;;;;;;;;;;;;;;;;;;1875003;28;7093;-66
2023/03/13 05:53:13;;;;;;;;;;;;;;;;;;1867648;29;7089;-63
2023/03/13 05:54:11;;;;;;;;;;;;;;;;;;1867887;29;7391;-64
2023/03/13 05:55:11;;;;;;;;;;;;;;;;;;1874838;28;7010;-66
2023/03/13 05:56:09;;;;;;;;;;;;;;;;;;1875221;28;7124;-63
2023/03/13 05:57:06;;;;;;;;;;;;;;;;;;1875768;28;7131;-64
2023/03/13 05:58:04;;;;;;;;;;;;;;;;;;1874856;28;7009;-63
2023/03/13 05:59:01;;;;;;;;;;;;;;;;;;1875462;28;7097;-63
2023/03/13 05:59:58;;;;;;;;;;;;;;;;;;1875430;28;7109;-64
2023/03/13 06:00:56;;;;;;;;;;;;;;;;;;1875089;28;7006;-63
2023/03/13 06:01:53;;;;;;;;;;;;;;;;;;1874014;28;8048;-64
2023/03/13 06:02:50;;;;;;;;;;;;;;;;;;1875190;28;7022;-65
2023/03/13 06:03:48;;;;;;;;;;;;;;;;;;1875495;28;7117;-64
2023/03/13 06:04:46;;;;;;;;;;;;;;;;;;1875232;28;7039;-62
2023/03/13 06:05:43;;;;;;;;;;;;;;;;;;1875579;28;7046;-64
2023/03/13 06:06:40;;;;;;;;;;;;;;;;;;1874678;28;7006;-64
2023/03/13 06:07:38;;;;;;;;;;;;;;;;;;1874902;28;7096;-65
2023/03/13 06:08:35;;;;;;;;;;;;;;;;;;1875159;28;7385;-63
2023/03/13 06:09:32;;;;;;;;;;;;;;;;;;1875130;28;7210;-63
2023/03/13 06:10:30;;;;;;;;;;;;;;;;;;1875676;28;7109;-65
2023/03/13 06:11:27;;;;;;;;;;;;;;;;;;1875142;28;8027;-64
2023/03/13 06:12:24;;;;;;;;;;;;;;;;;;1875140;28;7030;-65
2023/03/13 06:13:22;;;;;;;;;;;;;;;;;;1875238;28;7109;-65
2023/03/13 06:14:19;;;;;;;;;;;;;;;;;;1875296;28;7010;-65
2023/03/13 06:15:17;;;;;;;;;;;;;;;;;;1865912;29;7163;-64
2023/03/13 06:16:14;;;;;;;;;;;;;;;;;;1867924;29;7010;-64
2023/03/13 06:17:11;;;;;;;;;;;;;;;;;;1874930;28;7197;-65
2023/03/13 06:18:09;;;;;;;;;;;;;;;;;;1875089;28;7009;-65
2023/03/13 06:19:06;;;;;;;;;;;;;;;;;;1874870;28;7014;-63
2023/03/13 06:20:04;;;;;;;;;;;;;;;;;;1875472;28;8061;-63
2023/03/13 06:21:02;;;;;;;;;;;;;;;;;;1875035;28;8020;-65
2023/03/13 06:21:59;;;;;;;;;;;;;;;;;;1875247;28;7029;-64
2023/03/13 06:22:56;;;;;;;;;;;;;;;;;;1874707;28;7058;-66
2023/03/13 06:23:54;;;;;;;;;;;;;;;;;;1873667;28;7014;-63
2023/03/13 06:24:52;;;;;;;;;;;;;;;;;;1873320;28;7010;-63
2023/03/13 06:25:49;;;;;;;;;;;;;;;;;;1869483;28;8027;-63
2023/03/13 06:26:47;;;;;;;;;;;;;;;;;;1869655;28;7093;-63
2023/03/13 06:27:46;;;;;;;;;;;;;;;;;;1868567;29;7010;-64
2023/03/13 06:28:44;;;;;;;;;;;;;;;;;;1868149;28;7475;-66
2023/03/13 06:29:42;;;;;;;;;;;;;;;;;;1864933;29;7047;-65
2023/03/13 06:30:39;;;;;;;;;;;;;;;;;;1860598;29;7010;-64
2023/03/13 06:31:36;;;;;;;;;;;;;;;;;;1865668;29;7010;-65
2023/03/13 06:32:34;;;;;;;;;;;;;;;;;;1869216;28;7144;-63
2023/03/13 06:33:32;;;;;;;;;;;;;;;;;;1875224;28;7148;-63
2023/03/13 06:34:29;;;;;;;;;;;;;;;;;;1871512;28;7125;-66
2023/03/13 06:35:27;;;;;;;;;;;;;;;;;;1867358;29;9085;-66
2023/03/13 06:36:24;;;;;;;;;;;;;;;;;;1869245;28;7096;-66
2023/03/13 06:37:21;;;;;;;;;;;;;;;;;;1867963;28;7986;-64
2023/03/13 06:38:19;;;;;;;;;;;;;;;;;;1868702;28;7144;-63
2023/03/13 06:39:16;;;;;;;;;;;;;;;;;;1873358;28;7105;-63
2023/03/13 06:40:13;;;;;;;;;;;;;;;;;;1869786;28;7031;-64
2023/03/13 06:41:11;;;;;;;;;;;;;;;;;;1872500;28;7026;-65
2023/03/13 06:42:08;;;;;;;;;;;;;;;;;;1867557;29;7014;-65
2023/03/13 06:43:05;;;;;;;;;;;;;;;;;;1867039;29;7014;-63
2023/03/13 06:44:04;;;;;;;;;;;;;;;;;;1867426;29;8021;-66